createdAt,value
2019-04-16T00:01:29.284Z,5.96
2019-04-16T00:04:22.274Z,5.87
2019-04-16T00:07:06.862Z,5.61
2019-04-16T00:09:57.304Z,5.73
2019-04-16T00:12:32.453Z,5.82
2019-04-16T00:15:09.330Z,5.82
2019-04-16T00:17:44.401Z,5.81
2019-04-16T00:20:18.050Z,5.81
2019-04-16T00:23:08.647Z,5.75
2019-04-16T00:25:41.072Z,5.69
2019-04-16T00:28:14.630Z,5.65
2019-04-16T00:30:47.364Z,5.60
2019-04-16T00:33:19.842Z,5.55
2019-04-16T00:35:52.418Z,5.55
2019-04-16T00:38:24.738Z,5.54
2019-04-16T00:41:01.334Z,5.47
2019-04-16T00:43:33.406Z,5.42
2019-04-16T00:46:08.290Z,5.49
2019-04-16T00:48:40.307Z,5.43
2019-04-16T00:51:12.375Z,5.36
2019-04-16T00:53:44.558Z,5.22
2019-04-16T00:56:17.298Z,5.15
2019-04-16T00:58:52.033Z,5.02
2019-04-16T01:01:23.771Z,4.98
2019-04-16T01:03:56.472Z,4.98
2019-04-16T01:06:28.829Z,4.94
2019-04-16T01:09:01.417Z,4.90
2019-04-16T01:11:35.739Z,4.86
2019-04-16T01:14:10.002Z,4.74
2019-04-16T01:16:42.383Z,4.74
2019-04-16T01:19:15.881Z,4.84
2019-04-16T01:21:48.347Z,4.83
2019-04-16T01:24:21.191Z,4.78
2019-04-16T01:26:55.363Z,4.91
2019-04-16T01:29:27.978Z,4.91
2019-04-16T01:32:02.291Z,4.87
2019-04-16T01:34:34.570Z,4.83
2019-04-16T01:37:14.698Z,4.83
2019-04-16T01:39:48.625Z,4.86
2019-04-16T01:42:23.517Z,4.86
2019-04-16T01:44:59.402Z,4.76
2019-04-16T01:47:29.391Z,4.75
2019-04-16T01:50:01.877Z,4.65
2019-04-16T01:52:34.382Z,4.57
2019-04-16T01:55:08.380Z,4.49
2019-04-16T01:57:40.718Z,4.47
2019-04-16T02:00:13.517Z,4.47
2019-04-16T02:02:47.005Z,4.42
2019-04-16T02:05:20.364Z,4.39
2019-04-16T02:07:56.369Z,4.34
2019-04-16T02:10:28.461Z,4.25
2019-04-16T02:13:00.835Z,4.26
2019-04-16T02:15:33.325Z,4.18
2019-04-16T02:18:05.670Z,4.19
2019-04-16T02:20:40.304Z,4.19
2019-04-16T02:23:13.573Z,4.15
2019-04-16T02:25:48.458Z,4.02
2019-04-16T02:28:21.858Z,4.02
2019-04-16T02:30:54.689Z,4.16
2019-04-16T02:33:30.665Z,4.16
2019-04-16T02:36:06.640Z,4.20
2019-04-16T02:38:46.281Z,4.22
2019-04-16T02:41:14.532Z,4.11
2019-04-16T02:43:47.290Z,4.10
2019-04-16T02:46:19.659Z,4.09
2019-04-16T02:50:39.291Z,4.19
2019-04-16T02:53:16.317Z,4.05
2019-04-16T02:55:54.460Z,4.03
2019-04-16T02:58:34.526Z,4.03
2019-04-16T03:01:24.230Z,3.97
2019-04-16T03:04:04.321Z,3.89
2019-04-16T03:06:37.985Z,3.88
2019-04-16T03:09:10.708Z,3.88
2019-04-16T03:11:45.618Z,3.88
2019-04-16T03:14:17.704Z,3.98
2019-04-16T03:17:10.203Z,4.03
2019-04-16T03:19:44.302Z,3.99
2019-04-16T03:22:16.665Z,4.00
2019-04-16T03:24:49.166Z,4.00
2019-04-16T03:27:22.864Z,3.95
2019-04-16T03:29:55.418Z,3.91
2019-04-16T03:32:33.582Z,3.82
2019-04-16T03:35:02.160Z,3.77
2019-04-16T03:37:34.673Z,3.68
2019-04-16T03:40:16.177Z,3.68
2019-04-16T03:42:42.766Z,3.78
2019-04-16T03:45:15.334Z,3.91
2019-04-16T03:47:50.857Z,3.65
2019-04-16T03:50:22.285Z,3.65
2019-04-16T03:52:55.270Z,3.59
2019-04-16T03:55:28.301Z,3.56
2019-04-16T03:58:05.442Z,3.56
2019-04-16T04:00:35.354Z,3.66
2019-04-16T04:03:07.622Z,3.64
2019-04-16T04:05:40.250Z,3.64
2019-04-16T04:08:16.092Z,3.64
2019-04-16T04:10:46.773Z,3.71
2019-04-16T04:13:18.907Z,3.71
2019-04-16T04:15:55.131Z,3.72
2019-04-16T04:18:27.748Z,3.71
2019-04-16T04:21:00.313Z,3.59
2019-04-16T04:23:32.601Z,3.44
2019-04-16T04:26:05.479Z,3.44
2019-04-16T04:31:32.022Z,3.47
2019-04-16T04:34:01.854Z,3.45
2019-04-16T04:36:35.442Z,3.48
2019-04-16T04:39:14.416Z,3.40
2019-04-16T04:41:43.574Z,3.38
2019-04-16T04:44:16.291Z,3.32
2019-04-16T04:46:48.655Z,3.20
2019-04-16T04:49:21.288Z,3.20
2019-04-16T04:51:53.785Z,3.13
2019-04-16T04:54:26.414Z,3.13
2019-04-16T04:56:59.929Z,3.33
2019-04-16T04:59:36.485Z,3.26
2019-04-16T05:02:06.768Z,3.26
2019-04-16T05:04:43.896Z,3.31
2019-04-16T05:07:17.887Z,3.38
2019-04-16T05:09:50.645Z,3.37
2019-04-16T05:12:23.294Z,3.32
2019-04-16T05:14:58.468Z,3.38
2019-04-16T05:17:31.039Z,3.31
2019-04-16T05:22:21.537Z,3.58
2019-04-16T05:24:54.328Z,3.53
2019-04-16T05:27:29.452Z,3.47
2019-04-16T05:30:02.288Z,3.47
2019-04-16T05:32:34.769Z,3.68
2019-04-16T05:35:10.404Z,3.68
2019-04-16T05:37:43.454Z,3.79
2019-04-16T05:40:16.242Z,3.86
2019-04-16T05:42:48.755Z,4.05
2019-04-16T05:45:21.294Z,4.05
2019-04-16T05:47:53.819Z,4.29
2019-04-16T05:50:29.687Z,4.29
2019-04-16T05:53:01.144Z,4.36
2019-04-16T05:55:38.370Z,4.43
2019-04-16T05:58:11.842Z,4.51
2019-04-16T06:00:45.865Z,4.68
2019-04-16T06:03:21.877Z,4.81
2019-04-16T06:05:56.307Z,4.95
2019-04-16T06:08:28.793Z,5.10
2019-04-16T06:11:03.792Z,5.11
2019-04-16T06:13:53.349Z,5.22
2019-04-16T06:16:27.521Z,5.31
2019-04-16T06:19:04.420Z,5.49
2019-04-16T06:21:41.537Z,5.53
2019-04-16T06:24:17.367Z,5.64
2019-04-16T06:27:01.663Z,5.69
2019-04-16T06:29:39.807Z,5.69
2019-04-16T06:32:18.335Z,6.05
2019-04-16T06:34:57.751Z,6.16
2019-04-16T06:37:32.290Z,6.26
2019-04-16T06:40:24.276Z,6.48
2019-04-16T06:43:02.759Z,6.68
2019-04-16T06:45:37.978Z,6.68
2019-04-16T06:48:13.816Z,6.62
2019-04-16T06:50:51.053Z,6.82
2019-04-16T06:53:34.450Z,7.14
2019-04-16T06:56:09.590Z,7.14
2019-04-16T06:58:51.530Z,7.27
2019-04-16T07:01:28.719Z,7.40
2019-04-16T07:04:06.486Z,7.53
2019-04-16T07:06:46.672Z,7.71
2019-04-16T07:09:35.135Z,8.10
2019-04-16T07:12:02.829Z,8.29
2019-04-16T07:14:36.162Z,8.37
2019-04-16T07:17:10.447Z,8.54
2019-04-16T07:19:50.938Z,8.54
2019-04-16T07:22:24.430Z,8.68
2019-04-16T07:24:57.421Z,8.79
2019-04-16T07:27:36.124Z,8.99
2019-04-16T07:30:09.647Z,9.10
2019-04-16T07:32:46.957Z,9.28
2019-04-16T07:35:37.279Z,9.32
2019-04-16T07:38:24.888Z,9.21
2019-04-16T07:41:23.242Z,9.65
2019-04-16T07:44:08.080Z,9.65
2019-04-16T07:46:47.051Z,9.62
2019-04-16T07:49:27.295Z,10.20
2019-04-16T07:52:18.795Z,10.37
2019-04-16T07:54:54.435Z,10.37
2019-04-16T07:57:27.425Z,10.62
2019-04-16T08:00:00.298Z,10.68
2019-04-16T08:02:34.183Z,10.73
2019-04-16T08:05:10.004Z,11.01
2019-04-16T08:07:42.859Z,11.35
2019-04-16T08:10:16.989Z,11.35
2019-04-16T08:12:51.362Z,11.46
2019-04-16T08:15:24.066Z,11.71
2019-04-16T08:17:56.655Z,12.16
2019-04-16T08:20:29.320Z,12.16
2019-04-16T08:23:03.352Z,12.28
2019-04-16T08:25:35.907Z,12.28
2019-04-16T08:28:08.882Z,12.51
2019-04-16T08:30:43.049Z,12.66
2019-04-16T08:33:15.807Z,12.93
2019-04-16T08:35:48.535Z,12.73
2019-04-16T08:38:21.294Z,12.99
2019-04-16T08:40:54.320Z,13.23
2019-04-16T08:43:29.682Z,13.26
2019-04-16T08:46:00.814Z,12.92
2019-04-16T08:48:33.490Z,12.92
2019-04-16T08:51:06.434Z,13.28
2019-04-16T08:53:38.895Z,13.34
2019-04-16T08:56:11.338Z,13.22
2019-04-16T08:58:43.836Z,13.66
2019-04-16T09:01:18.701Z,13.66
2019-04-16T09:03:51.675Z,13.86
2019-04-16T09:06:24.296Z,13.65
2019-04-16T09:09:12.873Z,13.85
2019-04-16T09:11:40.338Z,14.20
2019-04-16T09:14:12.903Z,13.90
2019-04-16T09:16:46.357Z,13.90
2019-04-16T09:19:21.554Z,14.00
2019-04-16T09:21:53.430Z,14.55
2019-04-16T09:24:33.370Z,14.56
2019-04-16T09:27:28.669Z,14.58
2019-04-16T09:30:02.569Z,14.63
2019-04-16T09:32:39.047Z,14.88
2019-04-16T09:35:28.311Z,14.91
2019-04-16T09:37:59.870Z,15.34
2019-04-16T09:40:50.039Z,15.34
2019-04-16T09:43:24.340Z,15.68
2019-04-16T09:46:09.624Z,15.89
2019-04-16T09:48:34.507Z,15.95
2019-04-16T09:51:06.501Z,15.81
2019-04-16T09:53:40.379Z,15.78
2019-04-16T09:56:30.138Z,15.76
2019-04-16T09:59:15.686Z,15.76
2019-04-16T10:01:47.788Z,16.03
2019-04-16T10:04:21.293Z,16.46
2019-04-16T10:06:53.847Z,16.28
2019-04-16T10:12:10.672Z,16.65
2019-04-16T10:14:43.324Z,16.65
2019-04-16T10:17:15.748Z,16.67
2019-04-16T10:19:49.420Z,16.67
2019-04-16T10:22:21.890Z,16.90
2019-04-16T10:25:09.482Z,17.24
2019-04-16T10:27:44.291Z,17.20
2019-04-16T10:30:20.296Z,17.63
2019-04-16T10:32:52.706Z,17.81
2019-04-16T10:35:25.786Z,17.81
2019-04-16T10:38:03.042Z,17.58
2019-04-16T10:40:38.281Z,17.83
2019-04-16T10:43:19.971Z,17.95
2019-04-16T10:46:00.671Z,17.95
2019-04-16T10:48:40.642Z,18.38
2019-04-16T10:51:15.508Z,18.81
2019-04-16T10:53:53.421Z,18.46
2019-04-16T10:56:33.540Z,18.46
2019-04-16T10:59:18.744Z,18.75
2019-04-16T11:01:52.802Z,18.92
2019-04-16T11:04:44.004Z,18.57
2019-04-16T11:07:25.785Z,19.23
2019-04-16T11:09:58.426Z,19.32
2019-04-16T11:12:31.269Z,19.18
2019-04-16T11:15:04.303Z,19.75
2019-04-16T11:20:00.020Z,19.52
2019-04-16T11:22:34.109Z,19.49
2019-04-16T11:25:08.474Z,19.79
2019-04-16T11:27:46.010Z,20.11
2019-04-16T11:30:41.346Z,20.16
2019-04-16T11:33:10.031Z,20.16
2019-04-16T11:35:42.899Z,20.54
2019-04-16T11:38:17.533Z,20.24
2019-04-16T11:40:49.901Z,21.41
2019-04-16T11:43:22.419Z,21.41
2019-04-16T11:45:55.307Z,21.55
2019-04-16T11:48:29.596Z,21.68
2019-04-16T11:51:03.620Z,21.48
2019-04-16T11:53:37.336Z,22.21
2019-04-16T11:56:10.045Z,22.76
2019-04-16T11:58:46.319Z,22.42
2019-04-16T12:01:33.338Z,24.49
2019-04-16T12:04:10.939Z,24.49
2019-04-16T12:07:05.159Z,25.19
2019-04-16T12:09:55.433Z,25.85
2019-04-16T12:12:46.357Z,26.91
2019-04-16T12:15:20.628Z,26.30
2019-04-16T12:18:11.334Z,27.63
2019-04-16T12:20:45.472Z,28.41
2019-04-16T12:23:17.754Z,27.82
2019-04-16T12:25:58.039Z,29.00
2019-04-16T12:28:32.395Z,30.16
2019-04-16T12:31:06.270Z,31.08
2019-04-16T12:33:42.413Z,29.02
2019-04-16T12:36:19.353Z,30.52
2019-04-16T12:39:09.792Z,30.76
2019-04-16T12:41:42.703Z,30.76
2019-04-16T12:44:44.417Z,31.60
2019-04-16T12:47:12.532Z,31.41
2019-04-16T12:50:05.919Z,31.34
2019-04-16T12:54:38.716Z,33.31
2019-04-16T12:57:15.020Z,32.97
2019-04-16T13:00:01.150Z,31.92
2019-04-16T13:02:41.855Z,30.37
2019-04-16T13:05:20.881Z,27.51
2019-04-16T13:07:58.613Z,26.16
2019-04-16T13:10:32.657Z,25.69
2019-04-16T13:13:24.972Z,25.22
2019-04-16T13:15:59.347Z,24.28
2019-04-16T13:18:33.471Z,23.56
2019-04-16T13:21:07.416Z,22.65
2019-04-16T13:23:41.491Z,22.52
2019-04-16T13:26:15.741Z,22.09
2019-04-16T13:28:48.335Z,21.70
2019-04-16T13:31:20.778Z,21.14
2019-04-16T13:33:52.507Z,21.00
2019-04-16T13:36:27.822Z,20.54
2019-04-16T13:39:05.714Z,20.61
2019-04-16T13:41:39.289Z,20.57
2019-04-16T13:44:18.576Z,20.65
2019-04-16T13:46:50.574Z,20.29
2019-04-16T13:49:24.522Z,19.94
2019-04-16T13:51:57.636Z,19.93
2019-04-16T13:54:47.645Z,20.22
2019-04-16T13:57:22.861Z,20.39
2019-04-16T14:00:15.399Z,21.54
2019-04-16T14:02:55.296Z,22.26
2019-04-16T14:05:28.654Z,23.22
2019-04-16T14:08:01.309Z,22.96
2019-04-16T14:10:33.834Z,25.01
2019-04-16T14:13:12.366Z,25.01
2019-04-16T14:15:44.614Z,25.50
2019-04-16T14:18:15.429Z,25.38
2019-04-16T14:20:47.874Z,25.88
2019-04-16T14:23:20.499Z,26.75
2019-04-16T14:25:53.049Z,27.90
2019-04-16T14:28:25.539Z,27.41
2019-04-16T14:30:57.899Z,26.54
2019-04-16T14:33:32.565Z,25.69
2019-04-16T14:36:06.414Z,24.93
2019-04-16T14:38:52.427Z,24.57
2019-04-16T14:41:26.363Z,24.41
2019-04-16T14:44:12.878Z,24.26
2019-04-16T14:46:49.051Z,23.67
2019-04-16T14:49:21.486Z,22.97
2019-04-16T14:51:54.289Z,22.83
2019-04-16T14:54:28.553Z,21.59
2019-04-16T14:57:02.572Z,21.59
2019-04-16T14:59:42.791Z,21.34
2019-04-16T15:02:30.530Z,21.12
2019-04-16T15:05:02.763Z,20.60
2019-04-16T15:07:49.376Z,20.38
2019-04-16T15:10:40.296Z,20.02
2019-04-16T15:13:12.553Z,18.60
2019-04-16T15:15:46.526Z,18.60
2019-04-16T15:18:20.514Z,17.88
2019-04-16T15:21:13.233Z,17.69
2019-04-16T15:23:47.578Z,16.93
2019-04-16T15:26:37.439Z,16.93
2019-04-16T15:29:11.452Z,16.60
2019-04-16T15:31:50.269Z,16.48
2019-04-16T15:34:30.295Z,16.56
2019-04-16T15:37:13.729Z,16.36
2019-04-16T15:39:50.626Z,16.36
2019-04-16T15:42:40.588Z,16.20
2019-04-16T15:45:35.297Z,16.01
2019-04-16T15:49:58.035Z,15.91
2019-04-16T15:52:38.064Z,15.97
2019-04-16T15:55:27.733Z,15.70
2019-04-16T15:58:07.744Z,15.69
2019-04-16T16:00:44.298Z,15.92
2019-04-16T16:03:24.659Z,15.79
2019-04-16T16:06:11.480Z,15.79
2019-04-16T16:08:48.601Z,15.75
2019-04-16T16:11:28.846Z,15.77
2019-04-16T16:14:01.661Z,15.84
2019-04-16T16:16:42.006Z,15.86
2019-04-16T16:19:12.028Z,15.87
2019-04-16T16:21:43.421Z,16.03
2019-04-16T16:24:15.839Z,16.00
2019-04-16T16:26:48.419Z,16.01
2019-04-16T16:29:21.135Z,15.82
2019-04-16T16:31:53.761Z,15.69
2019-04-16T16:34:26.508Z,15.50
2019-04-16T16:36:59.302Z,15.46
2019-04-16T16:39:31.682Z,15.31
2019-04-16T16:42:04.290Z,15.31
2019-04-16T16:44:39.685Z,15.10
2019-04-16T16:47:14.282Z,15.02
2019-04-16T16:49:47.034Z,15.20
2019-04-16T16:52:21.346Z,15.20
2019-04-16T16:54:55.586Z,15.29
2019-04-16T16:57:30.585Z,15.29
2019-04-16T17:00:04.887Z,15.38
2019-04-16T17:02:49.311Z,15.34
2019-04-16T17:05:33.298Z,15.37
2019-04-16T17:08:05.974Z,15.14
2019-04-16T17:10:42.403Z,14.96
2019-04-16T17:13:16.965Z,14.96
2019-04-16T17:15:48.688Z,15.01
2019-04-16T17:18:21.293Z,14.98
2019-04-16T17:20:55.270Z,14.93
2019-04-16T17:23:27.856Z,14.93
2019-04-16T17:26:00.323Z,14.93
2019-04-16T17:28:32.978Z,14.92
2019-04-16T17:31:05.914Z,14.92
2019-04-16T17:33:40.073Z,14.94
2019-04-16T17:36:12.907Z,14.80
2019-04-16T17:38:45.452Z,14.79
2019-04-16T17:41:34.834Z,14.82
2019-04-16T17:44:09.302Z,14.79
2019-04-16T17:46:43.444Z,14.72
2019-04-16T17:49:24.278Z,14.72
2019-04-16T17:52:02.458Z,14.62
2019-04-16T17:54:48.740Z,14.69
2019-04-16T17:57:32.361Z,14.64
2019-04-16T18:00:22.929Z,14.50
2019-04-16T18:03:03.091Z,14.19
2019-04-16T18:05:36.627Z,14.09
2019-04-16T18:08:12.114Z,14.11
2019-04-16T18:10:44.338Z,14.16
2019-04-16T18:13:16.644Z,14.02
2019-04-16T18:15:51.908Z,14.02
2019-04-16T18:18:39.801Z,14.12
2019-04-16T18:21:22.799Z,14.10
2019-04-16T18:23:57.027Z,14.10
2019-04-16T18:26:47.844Z,14.02
2019-04-16T18:29:32.844Z,14.01
2019-04-16T18:32:05.483Z,14.01
2019-04-16T18:34:56.072Z,14.02
2019-04-16T18:37:30.300Z,13.95
2019-04-16T18:40:19.703Z,13.82
2019-04-16T18:42:59.919Z,13.82
2019-04-16T18:45:55.618Z,13.84
2019-04-16T18:48:28.311Z,13.81
2019-04-16T18:51:01.988Z,13.58
2019-04-16T18:53:34.467Z,13.58
2019-04-16T18:56:07.307Z,13.74
2019-04-16T18:58:41.841Z,13.85
2019-04-16T19:01:16.389Z,13.70
2019-04-16T19:03:48.986Z,13.70
2019-04-16T19:06:21.506Z,13.83
2019-04-16T19:08:54.461Z,13.85
2019-04-16T19:11:27.304Z,13.85
2019-04-16T19:14:00.313Z,13.79
2019-04-16T19:16:32.818Z,13.77
2019-04-16T19:19:05.504Z,13.77
2019-04-16T19:21:42.411Z,13.77
2019-04-16T19:24:14.473Z,13.77
2019-04-16T19:26:46.879Z,13.74
2019-04-16T19:29:19.459Z,13.77
2019-04-16T19:31:54.982Z,13.74
2019-04-16T19:34:26.653Z,13.65
2019-04-16T19:37:00.830Z,13.35
2019-04-16T19:39:34.723Z,13.15
2019-04-16T19:42:11.090Z,13.14
2019-04-16T19:44:41.897Z,13.19
2019-04-16T19:47:14.342Z,13.19
2019-04-16T19:49:46.981Z,13.19
2019-04-16T19:52:18.646Z,13.20
2019-04-16T19:54:51.332Z,13.20
2019-04-16T19:57:24.025Z,13.21
2019-04-16T19:59:55.811Z,13.21
2019-04-16T20:02:33.041Z,13.26
2019-04-16T20:05:02.727Z,13.23
2019-04-16T20:07:35.870Z,13.24
2019-04-16T20:10:08.818Z,13.24
2019-04-16T20:12:41.395Z,13.26
2019-04-16T20:15:14.299Z,13.16
2019-04-16T20:17:46.984Z,13.06
2019-04-16T20:20:19.522Z,13.06
2019-04-16T20:22:52.284Z,13.02
2019-04-16T20:25:24.820Z,12.89
2019-04-16T20:27:57.353Z,12.89
2019-04-16T20:30:31.301Z,12.84
2019-04-16T20:33:04.402Z,12.62
2019-04-16T20:35:36.763Z,12.62
2019-04-16T20:38:09.317Z,12.70
2019-04-16T20:40:41.854Z,12.53
2019-04-16T20:43:14.550Z,12.53
2019-04-16T20:45:47.061Z,12.59
2019-04-16T20:48:21.304Z,12.56
2019-04-16T20:51:41.737Z,12.38
2019-04-16T20:54:18.712Z,12.38
2019-04-16T20:56:53.136Z,12.29
2019-04-16T20:59:31.422Z,12.03
2019-04-16T21:02:11.569Z,12.03
2019-04-16T21:04:46.145Z,12.02
2019-04-16T21:07:21.815Z,11.99
2019-04-16T21:10:15.613Z,11.86
2019-04-16T21:12:55.741Z,11.74
2019-04-16T21:15:35.669Z,11.80
2019-04-16T21:18:15.940Z,11.73
2019-04-16T21:20:55.232Z,11.68
2019-04-16T21:23:34.725Z,11.62
2019-04-16T21:26:07.122Z,11.58
2019-04-16T21:28:58.588Z,11.53
2019-04-16T21:31:45.314Z,11.53
2019-04-16T21:34:29.892Z,11.46
2019-04-16T21:37:02.583Z,11.39
2019-04-16T21:39:36.824Z,11.40
2019-04-16T21:42:09.444Z,11.30
2019-04-16T21:44:44.659Z,11.33
2019-04-16T21:47:16.683Z,11.27
2019-04-16T21:49:49.317Z,11.18
2019-04-16T21:52:23.275Z,10.92
2019-04-16T21:54:56.365Z,10.92
2019-04-16T21:57:28.292Z,10.97
2019-04-16T22:00:00.748Z,11.01
2019-04-16T22:02:37.924Z,11.01
2019-04-16T22:05:16.730Z,10.97
2019-04-16T22:07:49.442Z,10.99
2019-04-16T22:10:24.314Z,11.00
2019-04-16T22:13:00.795Z,10.98
2019-04-16T22:15:48.573Z,10.99
2019-04-16T22:18:23.807Z,10.98
2019-04-16T22:21:01.033Z,10.98
2019-04-16T22:23:35.490Z,10.96
2019-04-16T22:26:11.015Z,10.96
2019-04-16T22:28:45.518Z,10.97
2019-04-16T22:31:37.187Z,10.94
2019-04-16T22:34:06.735Z,10.97
2019-04-16T22:36:39.300Z,11.02
2019-04-16T22:39:22.852Z,10.97
2019-04-16T22:41:58.339Z,10.92
2019-04-16T22:44:46.355Z,10.93
2019-04-16T22:47:20.393Z,10.93
2019-04-16T22:49:55.137Z,10.88
2019-04-16T22:52:28.602Z,10.88
2019-04-16T22:55:01.342Z,10.91
2019-04-16T22:57:36.810Z,10.89
2019-04-16T23:00:12.975Z,10.90
2019-04-16T23:02:48.299Z,10.86
2019-04-16T23:05:21.513Z,10.84
2019-04-16T23:07:55.322Z,10.85
2019-04-16T23:10:27.729Z,10.78
2019-04-16T23:13:01.635Z,10.78
2019-04-16T23:15:35.404Z,10.77
2019-04-16T23:18:07.901Z,10.77
2019-04-16T23:20:42.008Z,10.88
2019-04-16T23:23:18.048Z,10.86
2019-04-16T23:25:49.170Z,10.87
2019-04-16T23:28:21.866Z,10.89
2019-04-16T23:30:57.562Z,10.89
2019-04-16T23:33:32.858Z,10.93
2019-04-16T23:36:06.482Z,10.90
2019-04-16T23:38:39.332Z,10.93
2019-04-16T23:41:16.658Z,10.96
2019-04-16T23:44:03.044Z,10.96
2019-04-16T23:46:37.604Z,10.99
2019-04-16T23:49:30.962Z,10.97
2019-04-16T23:52:03.849Z,10.94
2019-04-16T23:54:40.765Z,10.95
2019-04-16T23:57:18.330Z,10.90
